Time;durP1;ratioP1;P1;durP2;ratioP2;P2;SDS_P1;SDS_P2;PMS_P1;PMS_P2;Temp;Humidity;BMP_temperature;BMP_pressure;BME280_temperature;BME280_humidity;BME280_pressure;Samples;Min_cycle;Max_cycle;Signal;HPM_P1;HPM_P2
2021/09/10 00:02:17;;;;;;;15.58;13.38;;;;;;;11.44;87.98;101021.73;1812849;79;21118;-71
2021/09/10 00:04:43;;;;;;;16.00;13.13;;;;;;;11.40;88.04;101022.77;1808593;79;21034;-71
2021/09/10 00:07:09;;;;;;;14.70;12.50;;;;;;;11.39;88.08;101021.16;1808769;79;21476;-71
2021/09/10 00:09:36;;;;;;;13.93;11.75;;;;;;;11.39;88.08;101022.50;1796013;79;21103;-70
2021/09/10 00:12:03;;;;;;;15.43;12.13;;;;;;;11.38;88.06;101021.39;1809345;79;21145;-70
2021/09/10 00:14:30;;;;;;;13.32;11.90;;;;;;;11.37;88.04;101021.93;1797844;79;21040;-71
2021/09/10 00:16:56;;;;;;;15.75;11.90;;;;;;;11.36;87.99;101016.31;1801834;77;21035;-71
2021/09/10 00:19:23;;;;;;;16.67;13.18;;;;;;;11.36;87.97;101020.33;1802843;78;21420;-71
2021/09/10 00:21:49;;;;;;;17.50;13.20;;;;;;;11.34;87.96;101017.08;1812448;79;21038;-71
2021/09/10 00:24:17;;;;;;;17.67;12.28;;;;;;;11.32;87.94;101011.69;1791299;78;21086;-71
2021/09/10 00:26:44;;;;;;;18.52;12.88;;;;;;;11.29;87.90;101014.36;1799991;79;21478;-71
2021/09/10 00:29:11;;;;;;;18.73;12.93;;;;;;;11.29;87.92;101013.03;1795520;79;21030;-72
2021/09/10 00:31:38;;;;;;;18.80;13.43;;;;;;;11.26;87.95;101012.99;1802401;78;21973;-71
2021/09/10 00:34:04;;;;;;;18.45;14.03;;;;;;;11.26;87.96;101018.88;1812843;77;21569;-71
2021/09/10 00:36:32;;;;;;;21.60;14.45;;;;;;;11.25;87.98;101018.57;1769285;81;21074;-72
2021/09/10 00:38:59;;;;;;;20.77;14.43;;;;;;;11.24;87.96;101014.30;1776495;80;21220;-72
2021/09/10 00:41:25;;;;;;;18.57;12.78;;;;;;;11.22;87.95;101017.23;1737955;82;21070;-71
2021/09/10 00:43:53;;;;;;;18.27;14.13;;;;;;;11.20;87.96;101015.86;1747383;81;21167;-71
2021/09/10 00:46:22;;;;;;;18.70;13.68;;;;;;;11.19;87.97;101019.06;1800978;79;21058;-71
2021/09/10 00:48:49;;;;;;;18.37;14.40;;;;;;;11.17;87.98;101019.03;1803732;79;21078;-70
2021/09/10 00:51:16;;;;;;;20.27;14.50;;;;;;;11.16;87.96;101018.22;1810021;77;21031;-72
2021/09/10 00:53:43;;;;;;;20.20;14.33;;;;;;;11.13;87.95;101016.05;1813327;79;21109;-71
2021/09/10 00:56:12;;;;;;;21.35;15.93;;;;;;;11.13;87.93;101021.39;1813168;79;21145;-70
2021/09/10 00:58:38;;;;;;;22.93;15.35;;;;;;;11.12;87.93;101019.78;1806683;78;21588;-71
2021/09/10 01:01:05;;;;;;;22.65;16.90;;;;;;;11.11;87.94;101019.48;1802089;78;21050;-70
2021/09/10 01:03:32;;;;;;;20.82;16.37;;;;;;;11.11;88.01;101021.36;1801534;79;21066;-70
2021/09/10 01:06:00;;;;;;;20.43;16.57;;;;;;;11.07;88.06;101017.03;1813731;79;21513;-70
2021/09/10 01:08:29;;;;;;;20.37;16.80;;;;;;;11.07;88.09;101020.24;1806327;78;21015;-71
2021/09/10 01:10:56;;;;;;;18.40;15.80;;;;;;;11.05;88.08;101024.48;1786776;79;21589;-71
2021/09/10 01:13:23;;;;;;;18.92;16.67;;;;;;;11.02;88.10;101024.48;1785223;79;21045;-70
2021/09/10 01:15:51;;;;;;;21.82;17.00;;;;;;;10.99;88.16;101022.80;1790686;79;21133;-72
2021/09/10 01:18:18;;;;;;;21.20;17.62;;;;;;;10.96;88.23;101024.66;1781116;78;21043;-72
2021/09/10 01:20:48;;;;;;;20.82;16.70;;;;;;;10.94;88.25;101024.89;1799677;79;21530;-72
2021/09/10 01:23:16;;;;;;;20.88;16.80;;;;;;;10.92;88.27;101017.64;1795565;77;20991;-72
2021/09/10 01:25:42;;;;;;;19.50;16.17;;;;;;;10.91;88.25;101018.70;1770490;81;21059;-71
2021/09/10 01:28:09;;;;;;;20.88;16.75;;;;;;;10.89;88.26;101018.66;1793563;79;20987;-71
2021/09/10 01:30:37;;;;;;;19.05;16.02;;;;;;;10.86;88.26;101024.00;1755728;81;20999;-70
2021/09/10 01:33:06;;;;;;;19.52;15.78;;;;;;;10.85;88.22;101022.36;1798932;79;21124;-71
2021/09/10 01:35:34;;;;;;;18.73;15.15;;;;;;;10.83;88.22;101031.17;1816160;79;21095;-71
2021/09/10 01:38:01;;;;;;;17.10;14.45;;;;;;;10.82;88.27;101028.20;1797333;77;20995;-72
2021/09/10 01:40:28;;;;;;;20.43;15.23;;;;;;;10.79;88.28;101023.34;1818255;79;20945;-71
2021/09/10 01:42:54;;;;;;;17.60;14.23;;;;;;;10.78;88.29;101025.21;1796123;78;21590;-72
2021/09/10 01:45:21;;;;;;;17.52;14.60;;;;;;;10.76;88.31;101023.33;1767770;79;21067;-74
2021/09/10 01:47:47;;;;;;;16.70;13.45;;;;;;;10.74;88.32;101025.96;1756204;80;20987;-71
2021/09/10 01:50:17;;;;;;;17.32;12.43;;;;;;;10.71;88.33;101021.11;1723921;81;21074;-71
2021/09/10 01:52:43;;;;;;;14.40;12.28;;;;;;;10.69;88.34;101020.00;1738899;79;20963;-72
2021/09/10 01:55:12;;;;;;;15.13;12.65;;;;;;;10.64;88.31;101019.95;1741519;81;21019;-72
2021/09/10 01:57:42;;;;;;;15.13;12.73;;;;;;;10.60;88.35;101021.50;1744348;81;21107;-71
2021/09/10 02:00:09;;;;;;;14.80;12.18;;;;;;;10.56;88.43;101018.52;1737073;81;21095;-71
2021/09/10 02:02:35;;;;;;;16.57;12.63;;;;;;;10.53;88.54;101020.34;1761692;80;20967;-71
2021/09/10 02:05:02;;;;;;;16.60;13.53;;;;;;;10.49;88.72;101018.38;1771869;79;20959;-72
2021/09/10 02:07:29;;;;;;;15.68;13.13;;;;;;;10.47;88.82;101021.84;1768774;81;21620;-71
2021/09/10 02:09:57;;;;;;;15.08;12.30;;;;;;;10.45;88.92;101019.94;1755279;79;21096;-71
2021/09/10 02:12:23;;;;;;;16.02;13.08;;;;;;;10.44;88.95;101016.45;1759607;79;21428;-72
2021/09/10 02:14:50;;;;;;;14.95;12.90;;;;;;;10.43;88.98;101018.86;1758121;79;21008;-72
2021/09/10 02:17:18;;;;;;;14.75;13.15;;;;;;;10.42;89.00;101021.22;1761626;79;21506;-71
2021/09/10 02:19:47;;;;;;;15.43;13.48;;;;;;;10.43;89.03;101022.86;1759334;79;21058;-71
2021/09/10 02:22:14;;;;;;;17.07;13.25;;;;;;;10.42;89.05;101021.22;1743806;79;21119;-72
2021/09/10 02:24:49;;;;;;;14.75;13.03;;;;;;;10.41;89.06;101024.95;1755175;79;21092;-72
2021/09/10 02:27:27;;;;;;;14.90;12.95;;;;;;;10.41;89.04;101018.81;1753182;81;20952;-72
2021/09/10 02:29:58;;;;;;;14.85;12.37;;;;;;;10.40;89.01;101022.52;1766177;80;21043;-71
2021/09/10 02:32:25;;;;;;;15.32;13.18;;;;;;;10.36;88.98;101026.20;1766453;79;21631;-71
2021/09/10 02:34:52;;;;;;;15.58;13.20;;;;;;;10.31;89.05;101027.47;1771282;81;21098;-72
2021/09/10 02:37:18;;;;;;;16.60;14.00;;;;;;;10.29;89.13;101025.56;1758783;80;21001;-72
2021/09/10 02:39:47;;;;;;;16.12;13.35;;;;;;;10.27;89.15;101021.02;1770258;81;21037;-72
2021/09/10 02:42:15;;;;;;;17.75;14.23;;;;;;;10.26;89.16;101023.37;1740261;80;21054;-72
2021/09/10 02:44:42;;;;;;;17.48;14.90;;;;;;;10.24;89.19;101028.14;1742293;81;21054;-72
2021/09/10 02:47:11;;;;;;;17.62;15.18;;;;;;;10.22;89.27;101020.89;1750730;81;20984;-72
2021/09/10 02:49:39;;;;;;;18.52;15.28;;;;;;;10.21;89.33;101025.95;1754409;81;21024;-72
2021/09/10 02:52:07;;;;;;;18.90;15.40;;;;;;;10.19;89.33;101024.04;1798723;78;21510;-72
2021/09/10 02:54:36;;;;;;;17.77;15.88;;;;;;;10.17;89.30;101021.62;1784844;79;21016;-72
2021/09/10 02:57:04;;;;;;;19.62;16.67;;;;;;;10.16;89.31;101022.66;1790592;78;21078;-72
2021/09/10 02:59:31;;;;;;;19.25;15.35;;;;;;;10.15;89.32;101019.71;1791822;78;21137;-72
2021/09/10 03:01:58;;;;;;;20.70;16.90;;;;;;;10.13;89.35;101017.00;1811962;77;21160;-72
2021/09/10 03:04:26;;;;;;;19.40;16.48;;;;;;;10.07;89.40;101021.46;1814509;79;21043;-72
2021/09/10 03:06:53;;;;;;;18.40;15.18;;;;;;;10.04;89.53;101020.08;1800754;77;21001;-72
2021/09/10 03:09:20;;;;;;;19.02;15.72;;;;;;;10.01;89.53;101016.55;1805539;79;20947;-72
2021/09/10 03:11:47;;;;;;;17.55;13.90;;;;;;;10.01;89.56;101017.89;1803636;79;21178;-72
2021/09/10 03:14:14;;;;;;;16.57;13.70;;;;;;;9.98;89.51;101015.70;1798230;77;21604;-72
2021/09/10 03:16:41;;;;;;;17.32;13.95;;;;;;;9.92;89.51;101016.66;1794297;79;20946;-71
2021/09/10 03:19:09;;;;;;;17.40;14.40;;;;;;;9.85;89.54;101017.34;1806938;77;21043;-72
2021/09/10 03:21:39;;;;;;;16.73;13.98;;;;;;;9.81;89.65;101017.55;1784638;79;21004;-72
2021/09/10 03:24:06;;;;;;;18.75;14.43;;;;;;;9.80;89.74;101018.58;1813845;77;21572;-72
2021/09/10 03:26:34;;;;;;;16.87;15.03;;;;;;;9.77;89.78;101017.22;1814652;79;21035;-71
2021/09/10 03:29:02;;;;;;;17.90;15.72;;;;;;;9.72;89.97;101014.98;1811962;79;21102;-72
2021/09/10 03:31:30;;;;;;;19.02;16.37;;;;;;;9.68;90.16;101013.32;1804464;79;21031;-72
2021/09/10 03:34:00;;;;;;;17.90;15.03;;;;;;;9.68;90.27;101012.52;1805314;79;21569;-72
2021/09/10 03:36:28;;;;;;;15.72;13.70;;;;;;;9.70;90.31;101019.20;1782949;79;21015;-72
2021/09/10 03:38:54;;;;;;;16.62;14.83;;;;;;;9.68;90.28;101016.52;1763143;79;21222;-72
2021/09/10 03:41:22;;;;;;;18.37;15.72;;;;;;;9.63;90.40;101020.69;1755272;81;20943;-72
2021/09/10 03:43:52;;;;;;;16.82;13.83;;;;;;;9.65;90.59;101019.66;1766691;79;20994;-71
2021/09/10 03:46:18;;;;;;;16.00;13.15;;;;;;;9.66;90.61;101016.74;1802542;77;21221;-72
2021/09/10 03:48:46;;;;;;;17.60;14.23;;;;;;;9.62;90.68;101019.08;1794029;78;21752;-71
2021/09/10 03:51:15;;;;;;;18.80;14.03;;;;;;;9.57;90.82;101018.97;1799433;77;21507;-72
2021/09/10 03:53:44;;;;;;;17.82;15.18;;;;;;;9.56;90.96;101023.22;1812703;79;20928;-71
2021/09/10 03:56:10;;;;;;;16.65;14.90;;;;;;;9.55;91.05;101018.42;1794693;77;21024;-72
2021/09/10 03:58:37;;;;;;;15.03;13.22;;;;;;;9.59;91.15;101023.55;1806051;79;21212;-71
2021/09/10 04:01:03;;;;;;;14.80;13.00;;;;;;;9.63;91.19;101013.22;1804648;77;21486;-72
2021/09/10 04:03:31;;;;;;;14.47;12.25;;;;;;;9.65;91.23;101022.33;1786941;77;20952;-71
2021/09/10 04:05:59;;;;;;;15.30;13.55;;;;;;;9.64;91.38;101021.52;1809859;77;21047;-72
2021/09/10 04:08:28;;;;;;;17.32;15.53;;;;;;;9.62;91.52;101017.75;1797291;77;20971;-71
2021/09/10 04:10:56;;;;;;;15.75;14.13;;;;;;;9.65;91.67;101024.47;1755580;79;21105;-71
2021/09/10 04:13:26;;;;;;;18.87;16.73;;;;;;;9.71;91.80;101018.70;1759010;79;21154;-73
2021/09/10 04:15:55;;;;;;;18.70;16.70;;;;;;;9.76;91.98;101020.92;1752919;80;21084;-72
2021/09/10 04:18:22;;;;;;;20.30;18.12;;;;;;;9.87;92.21;101027.23;1803918;77;21079;-72
2021/09/10 04:20:49;;;;;;;20.45;18.25;;;;;;;9.94;92.40;101022.58;1806621;78;21012;-72
2021/09/10 04:23:15;;;;;;;20.68;18.48;;;;;;;10.05;92.57;101021.69;1784548;77;21003;-72
2021/09/10 04:25:42;;;;;;;21.50;18.77;;;;;;;10.17;92.76;101021.62;1808304;79;21050;-72
2021/09/10 04:28:10;;;;;;;22.77;19.17;;;;;;;10.28;92.88;101020.75;1811545;78;21554;-72
2021/09/10 04:30:37;;;;;;;22.05;19.35;;;;;;;10.41;92.96;101020.95;1807287;77;21014;-72
2021/09/10 04:33:04;;;;;;;22.70;19.40;;;;;;;10.53;93.07;101020.87;1791687;79;21431;-72
2021/09/10 04:35:30;;;;;;;24.18;21.40;;;;;;;10.67;93.15;101026.67;1799527;79;20983;-72
2021/09/10 04:37:57;;;;;;;24.05;20.90;;;;;;;10.81;93.20;101027.92;1807839;77;21086;-73
2021/09/10 04:40:24;;;;;;;26.87;22.35;;;;;;;10.93;93.27;101019.81;1787163;77;21415;-72
2021/09/10 04:42:50;;;;;;;24.47;21.10;;;;;;;11.06;93.37;101021.31;1784798;77;21632;-72
2021/09/10 04:45:17;;;;;;;26.90;21.80;;;;;;;11.20;93.45;101021.20;1789615;77;21116;-72
2021/09/10 04:47:44;;;;;;;25.67;22.57;;;;;;;11.35;93.51;101024.06;1806739;79;21665;-72
2021/09/10 04:50:11;;;;;;;26.43;23.27;;;;;;;11.49;93.52;101020.47;1806596;79;21315;-72
2021/09/10 04:52:38;;;;;;;27.90;23.73;;;;;;;11.62;93.53;101020.59;1805877;78;21273;-73
2021/09/10 04:55:09;;;;;;;27.43;23.53;;;;;;;11.76;93.51;101025.81;1768849;78;21126;-72
2021/09/10 04:57:36;;;;;;;28.30;24.70;;;;;;;11.89;93.48;101019.28;1803249;77;21203;-72
2021/09/10 05:00:06;;;;;;;25.30;22.60;;;;;;;12.04;93.51;101015.91;1781242;79;21344;-72
2021/09/10 05:02:33;;;;;;;28.13;24.43;;;;;;;12.18;93.51;101015.77;1793204;78;21199;-72
2021/09/10 05:05:00;;;;;;;26.93;23.87;;;;;;;12.33;93.45;101020.42;1802054;77;21309;-72
2021/09/10 05:07:28;;;;;;;27.73;23.53;;;;;;;12.47;93.38;101018.94;1806085;77;21186;-72
2021/09/10 05:09:56;;;;;;;27.70;23.50;;;;;;;12.61;93.31;101015.27;1804177;77;21097;-72
2021/09/10 05:12:23;;;;;;;29.23;24.73;;;;;;;12.74;93.19;101013.45;1799203;77;21308;-72
2021/09/10 05:14:52;;;;;;;26.07;23.27;;;;;;;12.87;93.06;101012.99;1809772;79;21789;-72
2021/09/10 05:17:19;;;;;;;26.80;22.53;;;;;;;13.00;92.89;101017.61;1788826;77;21283;-71
2021/09/10 05:19:48;;;;;;;29.40;23.50;;;;;;;13.12;92.72;101010.13;1802611;77;21251;-72
2021/09/10 05:22:15;;;;;;;33.43;23.27;;;;;;;13.25;92.48;101012.89;1796786;78;21241;-72
2021/09/10 05:24:43;;;;;;;29.87;22.40;;;;;;;13.40;92.26;101007.59;1803312;77;21259;-72
2021/09/10 05:27:11;;;;;;;25.80;21.80;;;;;;;13.55;91.97;101012.16;1809881;79;21280;-72
2021/09/10 05:29:37;;;;;;;28.33;21.60;;;;;;;13.69;91.60;101011.11;1806779;77;21215;-72
2021/09/10 05:32:05;;;;;;;26.73;21.90;;;;;;;13.84;91.23;101019.19;1798016;77;21789;-73
2021/09/10 05:34:31;;;;;;;31.63;22.80;;;;;;;13.97;90.81;101019.20;1753270;79;21869;-72
2021/09/10 05:36:57;;;;;;;49.13;22.80;;;;;;;14.10;90.39;101015.98;1764126;79;21273;-72
2021/09/10 05:39:26;;;;;;;36.53;22.00;;;;;;;14.25;89.97;101012.50;1744953;80;22433;-72
2021/09/10 05:41:52;;;;;;;30.73;21.57;;;;;;;14.55;89.25;101017.05;1753253;79;21341;-72
2021/09/10 05:44:19;;;;;;;28.27;21.87;;;;;;;14.55;89.25;101017.05;1760488;80;21379;-72
2021/09/10 05:46:48;;;;;;;28.20;20.23;;;;;;;14.70;88.37;101014.30;1760742;80;21402;-72
2021/09/10 05:49:15;;;;;;;26.20;20.23;;;;;;;14.85;87.60;101009.98;1792642;77;21509;-72
2021/09/10 05:51:42;;;;;;;25.47;20.27;;;;;;;15.14;86.57;101013.63;1803703;77;21560;-72
2021/09/10 05:54:08;;;;;;;25.43;20.10;;;;;;;15.14;86.57;101013.63;1803364;79;21708;-72
2021/09/10 05:56:35;;;;;;;31.53;21.03;;;;;;;15.29;85.82;101006.55;1796593;78;21699;-72
2021/09/10 05:59:02;;;;;;;37.10;20.83;;;;;;;15.45;85.21;101009.42;1787106;77;21685;-72
2021/09/10 06:01:29;;;;;;;30.63;20.20;;;;;;;15.62;84.42;101010.39;1796617;77;21698;-72
2021/09/10 06:03:58;;;;;;;26.80;20.03;;;;;;;15.77;83.83;101009.53;1790202;77;21722;-71
2021/09/10 06:06:26;;;;;;;23.23;18.87;;;;;;;15.92;83.18;101014.78;1796382;78;21762;-71
2021/09/10 06:08:56;;;;;;;23.83;19.20;;;;;;;16.04;82.51;101015.23;1796354;77;22494;-72
2021/09/10 06:11:25;;;;;;;20.53;17.57;;;;;;;16.18;81.85;101014.03;1798770;77;21046;-72
2021/09/10 06:13:56;;;;;;;23.30;18.43;;;;;;;16.30;80.96;101009.63;1802220;79;21806;-71
2021/09/10 06:16:27;;;;;;;24.30;19.03;;;;;;;16.43;80.10;101014.91;1802976;77;21109;-71
2021/09/10 06:18:54;;;;;;;24.90;17.90;;;;;;;16.53;79.09;101018.29;1799827;79;21125;-71
2021/09/10 06:21:23;;;;;;;21.07;15.37;;;;;;;16.66;77.74;101016.81;1808686;77;21050;-71
2021/09/10 06:23:54;;;;;;;21.93;16.90;;;;;;;16.75;75.09;101017.00;1798409;77;21129;-71
2021/09/10 06:26:26;;;;;;;20.47;15.10;;;;;;;16.84;73.68;101026.87;1756193;79;21015;-71
2021/09/10 06:28:55;;;;;;;21.70;14.93;;;;;;;16.96;72.68;101030.53;1758286;81;21050;-71
2021/09/10 06:31:25;;;;;;;22.20;16.43;;;;;;;17.05;70.96;101028.80;1754343;79;21146;-71
2021/09/10 06:33:54;;;;;;;22.20;15.77;;;;;;;17.17;69.52;101030.27;1746142;79;21102;-71
2021/09/10 06:36:23;;;;;;;25.93;16.23;;;;;;;17.30;68.44;101027.66;1737699;81;21538;-71
2021/09/10 06:38:52;;;;;;;19.47;14.20;;;;;;;17.42;67.75;101031.30;1760502;80;21069;-71
2021/09/10 06:41:28;;;;;;;22.07;16.07;;;;;;;17.58;67.08;101037.29;1756392;79;21927;-71
2021/09/10 06:43:57;;;;;;;19.30;15.07;;;;;;;17.66;66.56;101029.86;1797913;79;21496;-71
2021/09/10 06:46:26;;;;;;;24.17;16.17;;;;;;;17.78;66.16;101029.47;1801046;79;21040;-71
2021/09/10 06:48:57;;;;;;;21.50;15.53;;;;;;;17.89;65.62;101030.10;1793556;77;21050;-71
2021/09/10 06:51:26;;;;;;;21.83;14.67;;;;;;;18.02;65.10;101031.50;1790587;79;21569;-71
2021/09/10 06:53:59;;;;;;;18.90;14.00;;;;;;;18.16;64.35;101025.33;1795865;77;39040;-72
2021/09/10 06:56:29;;;;;;;20.30;14.63;;;;;;;18.31;63.71;101022.93;1797618;78;21026;-72
2021/09/10 06:59:01;;;;;;;19.23;14.07;;;;;;;18.44;63.26;101022.16;1781521;80;21082;-72
2021/09/10 07:01:29;;;;;;;18.40;13.23;;;;;;;18.57;62.73;101024.63;1798292;77;21153;-71
2021/09/10 07:04:01;;;;;;;20.77;13.83;;;;;;;18.68;62.00;101024.12;1788552;79;21561;-72
2021/09/10 07:06:30;;;;;;;19.37;13.20;;;;;;;18.79;61.58;101026.13;1789977;79;21985;-72
2021/09/10 07:08:59;;;;;;;17.50;13.97;;;;;;;18.88;61.50;101028.36;1801377;78;21197;-72
2021/09/10 07:11:32;;;;;;;20.80;13.80;;;;;;;18.99;61.33;101030.34;1798395;78;21110;-70
2021/09/10 07:14:03;;;;;;;18.67;14.03;;;;;;;19.06;60.28;101027.22;1783417;78;28011;-72
2021/09/10 07:16:36;;;;;;;20.90;13.53;;;;;;;19.13;60.39;101030.31;1763960;80;21038;-70
2021/09/10 07:19:09;;;;;;;17.93;13.70;;;;;;;19.26;60.44;101028.14;1736689;81;21148;-70
2021/09/10 07:21:43;;;;;;;21.03;13.00;;;;;;;19.38;60.18;101028.42;1762268;80;21097;-71
2021/09/10 07:24:15;;;;;;;17.70;12.77;;;;;;;19.52;59.90;101028.95;1766412;81;21017;-72
2021/09/10 07:26:51;;;;;;;18.30;12.80;;;;;;;19.64;59.39;101025.15;1803639;78;21518;-71
2021/09/10 07:29:17;;;;;;;;;;;;;;;19.76;59.17;101025.42;1816918;78;21018;-71
2021/09/10 07:31:47;;;;;;;16.07;12.50;;;;;;;19.88;58.44;101029.74;1770932;81;21124;-71
2021/09/10 07:34:16;;;;;;;17.67;12.47;;;;;;;19.96;58.45;101032.26;1770683;81;21055;-71
2021/09/10 07:36:51;;;;;;;18.97;12.33;;;;;;;20.05;57.98;101029.62;1768852;81;20994;-71
2021/09/10 07:39:23;;;;;;;18.37;12.40;;;;;;;20.12;57.17;101032.12;1814362;79;20991;-71
2021/09/10 07:41:51;;;;;;;19.37;12.67;;;;;;;20.22;57.37;101036.50;1814680;79;20948;-71
2021/09/10 07:44:19;;;;;;;16.23;12.00;;;;;;;20.34;57.00;101035.38;1813813;79;22607;-71
2021/09/10 07:46:54;;;;;;;19.73;12.40;;;;;;;20.44;56.38;101037.03;1812820;79;21078;-71
2021/09/10 07:49:24;;;;;;;19.77;12.23;;;;;;;20.52;56.16;101043.63;1814609;79;21060;-71
2021/09/10 07:51:52;;;;;;;18.87;12.50;;;;;;;20.63;55.84;101036.01;1813427;79;21008;-71
2021/09/10 07:54:22;;;;;;;19.67;11.63;;;;;;;20.74;55.40;101034.07;1814942;79;20940;-71
2021/09/10 07:56:52;;;;;;;21.77;12.17;;;;;;;20.90;55.20;101033.66;1813705;79;21515;-71
2021/09/10 07:59:21;;;;;;;22.10;12.97;;;;;;;21.00;54.80;101036.08;1814416;79;20952;-72
2021/09/10 08:01:51;;;;;;;25.13;12.63;;;;;;;21.07;54.18;101030.98;1814691;79;20995;-71
2021/09/10 08:04:19;;;;;;;23.95;12.03;;;;;;;21.17;54.27;101026.61;1815253;79;21463;-70
2021/09/10 08:06:48;;;;;;;21.83;12.33;;;;;;;21.31;54.30;101025.90;1814659;79;21004;-70
2021/09/10 08:09:19;;;;;;;21.20;12.10;;;;;;;21.42;53.92;101025.62;1815123;79;21461;-70
2021/09/10 08:11:49;;;;;;;21.93;12.03;;;;;;;21.50;53.00;101018.84;1814669;79;20996;-70
2021/09/10 08:14:23;;;;;;;21.83;11.70;;;;;;;21.53;51.82;101022.28;1770207;78;21166;-71
2021/09/10 08:16:51;;;;;;;23.83;11.57;;;;;;;21.54;51.63;101023.87;1765834;81;21526;-71
2021/09/10 08:19:34;;;;;;;23.00;12.67;;;;;;;21.61;51.24;101021.23;1737323;82;21461;-71
2021/09/10 08:22:03;;;;;;;18.33;11.03;;;;;;;21.68;51.67;101020.19;1765971;81;21101;-71
2021/09/10 08:24:36;;;;;;;21.13;10.20;;;;;;;21.77;51.18;101019.06;1738147;82;21054;-70
2021/09/10 08:27:06;;;;;;;16.23;10.18;;;;;;;21.87;50.61;101008.42;1729980;81;21038;-71
2021/09/10 08:29:37;;;;;;;13.13;9.00;;;;;;;22.00;50.63;101006.64;1737844;82;20966;-71
2021/09/10 08:32:04;;;;;;;18.10;9.90;;;;;;;22.14;49.42;101005.88;1766283;80;21040;-71
2021/09/10 08:34:36;;;;;;;16.32;8.30;;;;;;;22.21;48.81;101000.80;1737811;82;21536;-71
2021/09/10 08:37:03;;;;;;;14.27;8.57;;;;;;;22.29;48.33;101001.09;1737673;82;21042;-72
2021/09/10 08:39:39;;;;;;;10.67;7.23;;;;;;;22.39;46.92;101000.17;1737650;82;21011;-70
2021/09/10 08:42:16;;;;;;;12.33;6.83;;;;;;;22.43;45.46;100988.06;1790478;79;21027;-79
2021/09/10 08:44:57;;;;;;;8.73;6.00;;;;;;;22.44;43.78;100993.73;1814340;78;21054;-77
2021/09/10 09:43:30;;;;;;;9.00;5.73;;;;;;;24.14;37.95;100947.34;1661785;81;21016;-70
2021/09/10 09:45:57;;;;;;;9.60;5.83;;;;;;;24.25;38.00;100946.32;1664700;85;21104;-72
2021/09/10 09:48:27;;;;;;;11.87;9.80;;;;;;;24.34;38.40;100942.92;1637576;86;21030;-71
2021/09/10 09:50:56;;;;;;;8.80;6.50;;;;;;;24.44;37.92;100945.23;1666250;85;21087;-71
2021/09/10 09:53:23;;;;;;;8.80;5.93;;;;;;;24.49;38.30;100946.38;1642513;85;21028;-71
2021/09/10 09:55:51;;;;;;;8.60;6.13;;;;;;;24.51;37.54;100939.20;1658210;83;21072;-71
2021/09/10 09:58:18;;;;;;;10.30;6.07;;;;;;;24.54;37.78;100946.13;1653780;85;21108;-71
2021/09/10 10:00:47;;;;;;;7.60;5.20;;;;;;;24.60;36.67;100937.72;1630718;86;21114;-71
2021/09/10 10:03:14;;;;;;;9.23;5.87;;;;;;;24.61;36.56;100936.00;1634353;86;21137;-71
2021/09/10 10:06:02;;;;;;;8.97;6.07;;;;;;;24.63;37.02;100931.58;1629766;86;21118;-72
2021/09/10 10:09:04;;;;;;;10.23;5.53;;;;;;;24.69;37.28;100932.36;1629700;86;21031;-71
2021/09/10 10:11:44;;;;;;;8.77;5.13;;;;;;;24.75;36.84;100933.73;1624451;86;21043;-71
2021/09/10 10:14:17;;;;;;;8.73;5.47;;;;;;;24.82;37.15;100934.52;1633598;86;21201;-71
2021/09/10 10:16:48;;;;;;;8.07;6.20;;;;;;;24.85;36.19;100927.00;1630156;86;21015;-72
2021/09/10 10:19:27;;;;;;;9.90;6.50;;;;;;;24.82;36.65;100930.98;1661224;84;21048;-71
2021/09/10 10:21:59;;;;;;;9.03;5.73;;;;;;;24.82;37.06;100928.26;1662231;85;21554;-72
2021/09/10 10:24:45;;;;;;;10.30;5.87;;;;;;;24.87;37.22;100928.80;1670434;85;21103;-72
2021/09/10 10:27:41;;;;;;;11.90;7.10;;;;;;;24.87;37.64;100924.70;1673564;83;20971;-72
2021/09/10 10:30:19;;;;;;;10.77;7.33;;;;;;;24.88;37.20;100924.15;1620135;86;21592;-72
2021/09/10 10:32:49;;;;;;;10.90;6.37;;;;;;;24.86;36.44;100921.75;1625704;86;21194;-72
2021/09/10 10:35:25;;;;;;;10.83;6.33;;;;;;;24.84;36.53;100915.82;1642662;86;21069;-71
2021/09/10 10:38:04;;;;;;;7.97;5.70;;;;;;;24.89;36.08;100914.23;1653965;85;21130;-72
2021/09/10 10:40:41;;;;;;;8.13;6.30;;;;;;;24.90;35.93;100904.09;1661524;85;21024;-72
2021/09/10 10:43:15;;;;;;;12.20;10.27;;;;;;;24.90;35.99;100907.61;1660303;86;21182;-71
2021/09/10 10:45:47;;;;;;;10.63;7.77;;;;;;;24.94;36.65;100907.72;1634977;86;21444;-71
2021/09/10 10:48:36;;;;;;;13.47;6.93;;;;;;;25.01;36.06;100902.48;1611609;86;21133;-71
2021/09/10 10:51:22;;;;;;;9.30;5.53;;;;;;;24.99;35.80;100906.91;1612116;87;21047;-71
2021/09/10 10:53:58;;;;;;;9.03;5.40;;;;;;;24.99;36.51;100897.34;1633444;86;21031;-71
2021/09/10 10:56:39;;;;;;;9.03;5.70;;;;;;;25.07;36.39;100898.91;1635251;86;21534;-71
2021/09/10 10:59:19;;;;;;;8.27;5.37;;;;;;;25.14;35.62;100890.40;1624314;88;21081;-71
2021/09/10 11:02:24;;;;;;;8.77;5.80;;;;;;;25.17;35.43;100892.44;1631738;87;21070;-71
2021/09/10 11:04:54;;;;;;;10.40;6.00;;;;;;;25.15;35.81;100891.19;1635771;87;21031;-72
2021/09/10 11:07:28;;;;;;;8.20;5.73;;;;;;;25.20;35.93;100883.52;1628594;87;21679;-70
2021/09/10 11:10:10;;;;;;;12.13;6.23;;;;;;;25.23;35.25;100881.45;1632285;87;21142;-71
2021/09/10 11:12:39;;;;;;;10.33;6.40;;;;;;;25.22;35.24;100882.61;1620851;87;21530;-73
2021/09/10 11:15:26;;;;;;;10.30;6.40;;;;;;;25.25;36.07;100881.12;1614656;87;21157;-72
2021/09/10 11:18:11;;;;;;;10.20;6.03;;;;;;;25.33;35.49;100878.79;1632692;87;21085;-72
2021/09/10 11:20:46;;;;;;;9.03;6.00;;;;;;;25.36;35.52;100880.83;1635971;87;20983;-72
2021/09/10 11:23:18;;;;;;;9.70;6.63;;;;;;;25.40;35.32;100879.01;1618984;87;21588;-70
2021/09/10 11:25:52;;;;;;;8.30;6.17;;;;;;;25.42;34.87;100876.70;1635157;86;21105;-71
2021/09/10 11:28:19;;;;;;;10.73;6.97;;;;;;;25.43;34.83;100871.44;1652082;84;21013;-72
2021/09/10 11:30:48;;;;;;;8.90;6.20;;;;;;;25.38;35.12;100869.55;1667921;85;21064;-72
2021/09/10 11:33:16;;;;;;;11.17;6.23;;;;;;;25.35;35.36;100871.05;1629492;86;21145;-71
2021/09/10 11:35:48;;;;;;;11.30;6.33;;;;;;;25.37;35.26;100861.11;1627071;86;21079;-71
2021/09/10 11:38:18;;;;;;;10.10;5.50;;;;;;;25.44;35.72;100864.84;1601482;88;21554;-71
2021/09/10 11:40:56;;;;;;;9.23;5.63;;;;;;;25.53;34.96;100866.61;1612669;87;21054;-71
2021/09/10 11:43:28;;;;;;;9.47;5.50;;;;;;;25.59;34.66;100862.48;1617136;86;21533;-71
2021/09/10 11:46:01;;;;;;;11.07;5.70;;;;;;;25.59;34.67;100859.74;1632941;87;21057;-72
2021/09/10 11:48:34;;;;;;;8.38;5.58;;;;;;;25.61;35.62;100858.25;1658580;84;22227;-71
2021/09/10 11:51:08;;;;;;;7.97;6.00;;;;;;;25.64;35.09;100849.92;1643447;86;21168;-72
2021/09/10 11:53:56;;;;;;;10.13;6.03;;;;;;;25.65;34.98;100848.19;1663095;84;21040;-71
2021/09/10 11:56:32;;;;;;;9.37;5.60;;;;;;;25.67;34.89;100843.75;1628754;86;20973;-71
2021/09/10 11:59:00;;;;;;;9.63;5.55;;;;;;;25.68;34.28;100833.02;1626376;86;21110;-71
2021/09/10 12:01:36;;;;;;;11.17;5.87;;;;;;;25.67;34.11;100840.44;1674371;83;22013;-71
2021/09/10 12:04:10;;;;;;;8.43;5.03;;;;;;;25.66;33.58;100837.45;1660054;85;21078;-71
2021/09/10 12:06:50;;;;;;;7.80;4.97;;;;;;;25.65;32.87;100833.14;1685013;85;21141;-71
2021/09/10 12:09:26;;;;;;;9.10;5.03;;;;;;;25.64;32.87;100827.46;1665331;84;21073;-71
2021/09/10 12:12:17;;;;;;;8.60;5.37;;;;;;;25.63;32.97;100827.80;1661435;83;21054;-71
2021/09/10 12:14:59;;;;;;;9.63;5.40;;;;;;;25.63;33.46;100820.95;1632523;86;21154;-71
2021/09/10 12:17:34;;;;;;;;;;;;;;;25.67;33.86;100825.97;1635572;86;21598;-71
2021/09/10 12:20:14;;;;;;;8.90;5.60;;;;;;;25.71;32.92;100822.73;1669801;85;20181;-71
2021/09/10 12:22:50;;;;;;;10.43;6.27;;;;;;;25.71;33.05;100811.22;1656486;85;21471;-71
2021/09/10 12:25:39;;;;;;;8.43;5.47;;;;;;;25.78;33.10;100813.34;1660037;84;20992;-70